sensor_id;sensor_type;location;lat;lon;timestamp;temperature;humidity
10270;DHT22;5180;50.832;5.390;2022-09-09T00:00:34;16.20;99.90
10270;DHT22;5180;50.832;5.390;2022-09-09T00:03:25;16.20;99.90
10270;DHT22;5180;50.832;5.390;2022-09-09T00:05:59;16.20;99.90
10270;DHT22;5180;50.832;5.390;2022-09-09T00:11:20;16.20;99.90
10270;DHT22;5180;50.832;5.390;2022-09-09T00:13:49;16.20;99.90
10270;DHT22;5180;50.832;5.390;2022-09-09T00:16:19;16.20;99.90
10270;DHT22;5180;50.832;5.390;2022-09-09T00:19:15;16.20;99.90
10270;DHT22;5180;50.832;5.390;2022-09-09T00:24:44;16.10;99.90
10270;DHT22;5180;50.832;5.390;2022-09-09T00:30:27;16.00;99.90
10270;DHT22;5180;50.832;5.390;2022-09-09T00:32:34;16.00;99.90
10270;DHT22;5180;50.832;5.390;2022-09-09T00:37:41;15.90;99.90
10270;DHT22;5180;50.832;5.390;2022-09-09T00:40:34;15.90;99.90
10270;DHT22;5180;50.832;5.390;2022-09-09T00:43:10;15.80;99.90
10270;DHT22;5180;50.832;5.390;2022-09-09T00:48:19;15.60;99.90
10270;DHT22;5180;50.832;5.390;2022-09-09T00:50:56;15.50;99.90
10270;DHT22;5180;50.832;5.390;2022-09-09T00:56:31;15.40;99.90
10270;DHT22;5180;50.832;5.390;2022-09-09T00:59:12;15.30;99.90
10270;DHT22;5180;50.832;5.390;2022-09-09T01:01:40;15.30;99.90
10270;DHT22;5180;50.832;5.390;2022-09-09T01:04:12;15.30;99.90
10270;DHT22;5180;50.832;5.390;2022-09-09T01:06:41;15.40;99.90
10270;DHT22;5180;50.832;5.390;2022-09-09T01:12:16;15.40;99.90
10270;DHT22;5180;50.832;5.390;2022-09-09T01:14:47;15.40;99.90
10270;DHT22;5180;50.832;5.390;2022-09-09T01:17:39;15.40;99.90
10270;DHT22;5180;50.832;5.390;2022-09-09T01:20:29;15.40;99.90
10270;DHT22;5180;50.832;5.390;2022-09-09T01:28:27;15.40;99.90
10270;DHT22;5180;50.832;5.390;2022-09-09T01:30:54;15.40;99.90
10270;DHT22;5180;50.832;5.390;2022-09-09T01:33:20;15.50;99.90
10270;DHT22;5180;50.832;5.390;2022-09-09T01:35:52;15.50;99.90
10270;DHT22;5180;50.832;5.390;2022-09-09T01:38:22;15.50;99.90
10270;DHT22;5180;50.832;5.390;2022-09-09T01:40:49;15.50;99.90
10270;DHT22;5180;50.832;5.390;2022-09-09T01:43:18;15.50;99.90
10270;DHT22;5180;50.832;5.390;2022-09-09T01:45:46;15.60;99.90
10270;DHT22;5180;50.832;5.390;2022-09-09T01:48:13;15.60;99.90
10270;DHT22;5180;50.832;5.390;2022-09-09T01:50:39;15.70;99.90
10270;DHT22;5180;50.832;5.390;2022-09-09T01:53:05;15.80;99.90
10270;DHT22;5180;50.832;5.390;2022-09-09T01:55:38;15.90;99.90
10270;DHT22;5180;50.832;5.390;2022-09-09T01:58:34;15.90;99.90
10270;DHT22;5180;50.832;5.390;2022-09-09T02:01:22;16.00;99.90
10270;DHT22;5180;50.832;5.390;2022-09-09T02:03:56;16.00;99.90
10270;DHT22;5180;50.832;5.390;2022-09-09T02:06:27;16.00;99.90
10270;DHT22;5180;50.832;5.390;2022-09-09T02:08:56;16.00;99.90
10270;DHT22;5180;50.832;5.390;2022-09-09T02:11:25;16.10;99.90
10270;DHT22;5180;50.832;5.390;2022-09-09T02:14:00;16.10;99.90
10270;DHT22;5180;50.832;5.390;2022-09-09T02:19:25;16.10;99.90
10270;DHT22;5180;50.832;5.390;2022-09-09T02:21:56;16.10;99.90
10270;DHT22;5180;50.832;5.390;2022-09-09T02:24:23;16.00;99.90
10270;DHT22;5180;50.832;5.390;2022-09-09T02:26:52;16.00;99.90
10270;DHT22;5180;50.832;5.390;2022-09-09T02:29:24;16.00;99.90
10270;DHT22;5180;50.832;5.390;2022-09-09T02:31:51;15.90;99.90
10270;DHT22;5180;50.832;5.390;2022-09-09T02:34:21;15.90;99.90
10270;DHT22;5180;50.832;5.390;2022-09-09T02:36:51;15.90;99.90
10270;DHT22;5180;50.832;5.390;2022-09-09T02:39:19;15.90;99.90
10270;DHT22;5180;50.832;5.390;2022-09-09T02:41:44;15.80;99.90
10270;DHT22;5180;50.832;5.390;2022-09-09T02:44:15;15.80;99.90
10270;DHT22;5180;50.832;5.390;2022-09-09T02:52:16;15.80;99.90
10270;DHT22;5180;50.832;5.390;2022-09-09T02:54:43;15.80;99.90
10270;DHT22;5180;50.832;5.390;2022-09-09T02:57:14;15.80;99.90
10270;DHT22;5180;50.832;5.390;2022-09-09T02:59:43;15.80;99.90
10270;DHT22;5180;50.832;5.390;2022-09-09T03:02:09;15.80;99.90
10270;DHT22;5180;50.832;5.390;2022-09-09T03:04:40;15.80;99.90
10270;DHT22;5180;50.832;5.390;2022-09-09T03:07:07;15.80;99.90
10270;DHT22;5180;50.832;5.390;2022-09-09T03:09:32;15.80;99.90
10270;DHT22;5180;50.832;5.390;2022-09-09T03:11:58;15.70;99.90
10270;DHT22;5180;50.832;5.390;2022-09-09T03:14:24;15.80;99.90
10270;DHT22;5180;50.832;5.390;2022-09-09T03:16:53;15.70;99.90
10270;DHT22;5180;50.832;5.390;2022-09-09T03:19:20;15.70;99.90
10270;DHT22;5180;50.832;5.390;2022-09-09T03:21:46;15.70;99.90
10270;DHT22;5180;50.832;5.390;2022-09-09T03:24:13;15.70;99.90
10270;DHT22;5180;50.832;5.390;2022-09-09T03:26:40;15.70;99.90
10270;DHT22;5180;50.832;5.390;2022-09-09T03:29:06;15.70;99.90
10270;DHT22;5180;50.832;5.390;2022-09-09T03:31:33;15.80;99.90
10270;DHT22;5180;50.832;5.390;2022-09-09T03:33:59;15.80;99.90
10270;DHT22;5180;50.832;5.390;2022-09-09T03:36:28;15.80;99.90
10270;DHT22;5180;50.832;5.390;2022-09-09T03:38:55;15.80;99.90
10270;DHT22;5180;50.832;5.390;2022-09-09T03:41:24;15.80;99.90
10270;DHT22;5180;50.832;5.390;2022-09-09T03:43:50;15.90;99.90
10270;DHT22;5180;50.832;5.390;2022-09-09T03:46:17;15.90;99.90
10270;DHT22;5180;50.832;5.390;2022-09-09T03:48:43;16.00;99.90
10270;DHT22;5180;50.832;5.390;2022-09-09T03:51:09;16.00;99.90
10270;DHT22;5180;50.832;5.390;2022-09-09T03:53:34;16.10;99.90
10270;DHT22;5180;50.832;5.390;2022-09-09T03:56:02;16.10;99.90
10270;DHT22;5180;50.832;5.390;2022-09-09T03:58:28;16.10;99.90
10270;DHT22;5180;50.832;5.390;2022-09-09T04:03:21;16.10;99.90
10270;DHT22;5180;50.832;5.390;2022-09-09T04:05:49;16.10;99.90
10270;DHT22;5180;50.832;5.390;2022-09-09T04:08:14;16.10;99.90
10270;DHT22;5180;50.832;5.390;2022-09-09T04:10:40;16.10;99.90
10270;DHT22;5180;50.832;5.390;2022-09-09T04:13:07;16.10;99.90
10270;DHT22;5180;50.832;5.390;2022-09-09T04:15:33;16.10;99.90
10270;DHT22;5180;50.832;5.390;2022-09-09T04:18:00;16.00;99.90
10270;DHT22;5180;50.832;5.390;2022-09-09T04:20:25;16.00;99.90
10270;DHT22;5180;50.832;5.390;2022-09-09T04:22:51;16.00;99.90
10270;DHT22;5180;50.832;5.390;2022-09-09T04:25:17;16.10;99.90
10270;DHT22;5180;50.832;5.390;2022-09-09T04:27:42;16.00;99.90
10270;DHT22;5180;50.832;5.390;2022-09-09T04:30:09;16.10;99.90
10270;DHT22;5180;50.832;5.390;2022-09-09T04:32:35;16.10;99.90
10270;DHT22;5180;50.832;5.390;2022-09-09T04:35:02;16.10;99.90
10270;DHT22;5180;50.832;5.390;2022-09-09T04:37:28;16.10;99.90
10270;DHT22;5180;50.832;5.390;2022-09-09T04:39:54;16.10;99.90
10270;DHT22;5180;50.832;5.390;2022-09-09T04:42:19;16.10;99.90
10270;DHT22;5180;50.832;5.390;2022-09-09T04:44:45;16.10;99.90
10270;DHT22;5180;50.832;5.390;2022-09-09T04:47:11;16.00;99.90
10270;DHT22;5180;50.832;5.390;2022-09-09T04:49:37;16.10;99.90
10270;DHT22;5180;50.832;5.390;2022-09-09T04:52:04;16.00;99.90
10270;DHT22;5180;50.832;5.390;2022-09-09T04:54:29;16.00;99.90
10270;DHT22;5180;50.832;5.390;2022-09-09T04:56:55;16.00;99.90
10270;DHT22;5180;50.832;5.390;2022-09-09T04:59:21;15.90;99.90
10270;DHT22;5180;50.832;5.390;2022-09-09T05:01:48;15.90;99.90
10270;DHT22;5180;50.832;5.390;2022-09-09T05:04:14;16.00;99.90
10270;DHT22;5180;50.832;5.390;2022-09-09T05:06:41;16.00;99.90
10270;DHT22;5180;50.832;5.390;2022-09-09T05:09:08;16.00;99.90
10270;DHT22;5180;50.832;5.390;2022-09-09T05:11:34;16.00;99.90
10270;DHT22;5180;50.832;5.390;2022-09-09T05:14:04;16.00;99.90
10270;DHT22;5180;50.832;5.390;2022-09-09T05:16:30;16.10;99.90
10270;DHT22;5180;50.832;5.390;2022-09-09T05:18:56;16.20;99.90
10270;DHT22;5180;50.832;5.390;2022-09-09T05:21:23;16.20;99.90
10270;DHT22;5180;50.832;5.390;2022-09-09T05:23:50;16.20;99.90
10270;DHT22;5180;50.832;5.390;2022-09-09T05:26:20;16.30;99.90
10270;DHT22;5180;50.832;5.390;2022-09-09T05:28:47;16.40;99.90
10270;DHT22;5180;50.832;5.390;2022-09-09T05:31:14;16.40;99.90
10270;DHT22;5180;50.832;5.390;2022-09-09T05:33:43;16.40;99.90
10270;DHT22;5180;50.832;5.390;2022-09-09T05:36:13;16.50;99.90
10270;DHT22;5180;50.832;5.390;2022-09-09T05:38:39;16.60;99.90
10270;DHT22;5180;50.832;5.390;2022-09-09T05:41:06;16.60;99.90
10270;DHT22;5180;50.832;5.390;2022-09-09T05:43:33;16.60;99.90
10270;DHT22;5180;50.832;5.390;2022-09-09T05:48:41;16.70;99.90
10270;DHT22;5180;50.832;5.390;2022-09-09T05:51:09;16.70;99.90
10270;DHT22;5180;50.832;5.390;2022-09-09T05:53:38;16.80;99.90
10270;DHT22;5180;50.832;5.390;2022-09-09T05:56:15;16.80;99.90
10270;DHT22;5180;50.832;5.390;2022-09-09T05:58:42;16.90;99.90
10270;DHT22;5180;50.832;5.390;2022-09-09T06:04:00;17.00;99.90
10270;DHT22;5180;50.832;5.390;2022-09-09T06:06:32;17.10;99.90
10270;DHT22;5180;50.832;5.390;2022-09-09T06:09:03;17.10;99.90
10270;DHT22;5180;50.832;5.390;2022-09-09T06:11:32;17.20;99.90
10270;DHT22;5180;50.832;5.390;2022-09-09T06:13:59;17.30;99.90
10270;DHT22;5180;50.832;5.390;2022-09-09T06:16:26;17.30;99.90
10270;DHT22;5180;50.832;5.390;2022-09-09T06:18:53;17.30;99.90
10270;DHT22;5180;50.832;5.390;2022-09-09T06:21:28;17.30;99.90
10270;DHT22;5180;50.832;5.390;2022-09-09T06:23:55;17.30;99.90
10270;DHT22;5180;50.832;5.390;2022-09-09T06:26:26;17.40;99.90
10270;DHT22;5180;50.832;5.390;2022-09-09T06:28:54;17.40;99.90
10270;DHT22;5180;50.832;5.390;2022-09-09T06:31:22;17.40;99.90
10270;DHT22;5180;50.832;5.390;2022-09-09T06:33:49;17.50;99.90
10270;DHT22;5180;50.832;5.390;2022-09-09T06:36:20;17.50;99.90
10270;DHT22;5180;50.832;5.390;2022-09-09T06:38:47;17.60;99.90
10270;DHT22;5180;50.832;5.390;2022-09-09T06:41:14;17.60;99.90
10270;DHT22;5180;50.832;5.390;2022-09-09T06:43:40;17.60;99.90
10270;DHT22;5180;50.832;5.390;2022-09-09T06:46:08;17.60;99.90
10270;DHT22;5180;50.832;5.390;2022-09-09T06:48:33;17.60;99.90
10270;DHT22;5180;50.832;5.390;2022-09-09T06:53:32;17.90;99.90
10270;DHT22;5180;50.832;5.390;2022-09-09T06:56:00;18.10;99.90
10270;DHT22;5180;50.832;5.390;2022-09-09T06:58:27;18.30;99.90
10270;DHT22;5180;50.832;5.390;2022-09-09T07:01:04;18.60;99.90
10270;DHT22;5180;50.832;5.390;2022-09-09T07:03:31;19.00;99.90
10270;DHT22;5180;50.832;5.390;2022-09-09T07:05:56;19.30;99.90
10270;DHT22;5180;50.832;5.390;2022-09-09T07:08:22;19.20;99.90
10270;DHT22;5180;50.832;5.390;2022-09-09T07:10:50;19.20;99.90
10270;DHT22;5180;50.832;5.390;2022-09-09T07:13:23;19.10;99.90
10270;DHT22;5180;50.832;5.390;2022-09-09T07:15:51;19.00;99.90
10270;DHT22;5180;50.832;5.390;2022-09-09T07:18:16;18.90;99.90
10270;DHT22;5180;50.832;5.390;2022-09-09T07:20:42;18.80;99.90
10270;DHT22;5180;50.832;5.390;2022-09-09T07:23:08;18.80;99.90
10270;DHT22;5180;50.832;5.390;2022-09-09T07:25:33;18.80;99.90
10270;DHT22;5180;50.832;5.390;2022-09-09T07:27:59;18.70;99.90
10270;DHT22;5180;50.832;5.390;2022-09-09T07:30:24;18.80;99.90
10270;DHT22;5180;50.832;5.390;2022-09-09T07:32:51;18.80;99.90
10270;DHT22;5180;50.832;5.390;2022-09-09T07:35:17;18.80;99.90
10270;DHT22;5180;50.832;5.390;2022-09-09T07:37:43;18.80;99.90
10270;DHT22;5180;50.832;5.390;2022-09-09T07:40:10;18.80;99.90
10270;DHT22;5180;50.832;5.390;2022-09-09T07:42:36;18.70;99.90
10270;DHT22;5180;50.832;5.390;2022-09-09T07:45:03;18.70;99.90
10270;DHT22;5180;50.832;5.390;2022-09-09T07:47:29;18.70;99.90
10270;DHT22;5180;50.832;5.390;2022-09-09T07:49:55;18.90;99.90
10270;DHT22;5180;50.832;5.390;2022-09-09T07:52:21;19.10;99.90
10270;DHT22;5180;50.832;5.390;2022-09-09T07:54:47;19.20;99.90
10270;DHT22;5180;50.832;5.390;2022-09-09T07:57:12;19.40;99.90
10270;DHT22;5180;50.832;5.390;2022-09-09T07:59:38;19.50;99.90
10270;DHT22;5180;50.832;5.390;2022-09-09T08:02:04;19.50;99.90
10270;DHT22;5180;50.832;5.390;2022-09-09T08:04:29;19.50;99.90
10270;DHT22;5180;50.832;5.390;2022-09-09T08:06:57;19.40;99.90
10270;DHT22;5180;50.832;5.390;2022-09-09T08:09:24;19.20;99.90
10270;DHT22;5180;50.832;5.390;2022-09-09T08:11:55;19.20;99.90
10270;DHT22;5180;50.832;5.390;2022-09-09T08:14:22;19.10;99.90
10270;DHT22;5180;50.832;5.390;2022-09-09T08:16:49;19.00;99.90
10270;DHT22;5180;50.832;5.390;2022-09-09T08:19:15;18.90;99.90
10270;DHT22;5180;50.832;5.390;2022-09-09T08:21:42;18.90;99.90
10270;DHT22;5180;50.832;5.390;2022-09-09T08:24:10;18.90;99.90
10270;DHT22;5180;50.832;5.390;2022-09-09T08:26:39;19.00;99.90
10270;DHT22;5180;50.832;5.390;2022-09-09T08:29:07;19.10;99.90
10270;DHT22;5180;50.832;5.390;2022-09-09T08:31:38;19.20;99.90
10270;DHT22;5180;50.832;5.390;2022-09-09T08:34:05;19.10;99.90
10270;DHT22;5180;50.832;5.390;2022-09-09T08:36:34;19.10;99.90
10270;DHT22;5180;50.832;5.390;2022-09-09T08:39:02;19.10;99.90
10270;DHT22;5180;50.832;5.390;2022-09-09T08:52:42;19.10;99.90
10270;DHT22;5180;50.832;5.390;2022-09-09T09:03:48;19.00;99.90
10270;DHT22;5180;50.832;5.390;2022-09-09T09:09:15;18.80;99.90
10270;DHT22;5180;50.832;5.390;2022-09-09T09:11:51;18.90;99.90
10270;DHT22;5180;50.832;5.390;2022-09-09T09:14:22;19.00;99.90
10270;DHT22;5180;50.832;5.390;2022-09-09T09:19:23;19.40;99.90
10270;DHT22;5180;50.832;5.390;2022-09-09T09:22:05;19.40;99.90
10270;DHT22;5180;50.832;5.390;2022-09-09T09:27:18;19.30;99.90
10270;DHT22;5180;50.832;5.390;2022-09-09T09:29:45;19.10;99.90
10270;DHT22;5180;50.832;5.390;2022-09-09T09:32:16;19.00;99.90
10270;DHT22;5180;50.832;5.390;2022-09-09T09:34:49;19.00;99.90
10270;DHT22;5180;50.832;5.390;2022-09-09T09:37:21;19.10;99.90
10270;DHT22;5180;50.832;5.390;2022-09-09T09:39:49;19.10;99.90
10270;DHT22;5180;50.832;5.390;2022-09-09T09:42:17;19.10;99.90
10270;DHT22;5180;50.832;5.390;2022-09-09T09:44:43;19.30;99.90
10270;DHT22;5180;50.832;5.390;2022-09-09T09:47:13;19.50;99.90
10270;DHT22;5180;50.832;5.390;2022-09-09T09:49:59;19.60;99.90
10270;DHT22;5180;50.832;5.390;2022-09-09T09:52:29;19.70;99.90
10270;DHT22;5180;50.832;5.390;2022-09-09T09:54:56;19.70;99.90
10270;DHT22;5180;50.832;5.390;2022-09-09T09:57:29;19.90;99.90
10270;DHT22;5180;50.832;5.390;2022-09-09T10:00:16;20.10;99.90
10270;DHT22;5180;50.832;5.390;2022-09-09T10:02:44;20.20;99.90
10270;DHT22;5180;50.832;5.390;2022-09-09T10:05:21;20.10;99.90
10270;DHT22;5180;50.832;5.390;2022-09-09T10:08:10;20.10;99.90
10270;DHT22;5180;50.832;5.390;2022-09-09T10:19:32;20.70;99.90
10270;DHT22;5180;50.832;5.390;2022-09-09T10:22:26;20.50;99.90
10270;DHT22;5180;50.832;5.390;2022-09-09T10:33:26;19.20;99.90
10270;DHT22;5180;50.832;5.390;2022-09-09T10:36:07;18.70;99.90
10270;DHT22;5180;50.832;5.390;2022-09-09T10:41:22;18.30;99.90
10270;DHT22;5180;50.832;5.390;2022-09-09T10:52:38;18.30;99.90
10270;DHT22;5180;50.832;5.390;2022-09-09T10:55:19;18.60;99.90
10270;DHT22;5180;50.832;5.390;2022-09-09T10:57:47;18.90;99.90
10270;DHT22;5180;50.832;5.390;2022-09-09T11:00:37;19.20;99.90
10270;DHT22;5180;50.832;5.390;2022-09-09T11:03:04;19.50;99.90
10270;DHT22;5180;50.832;5.390;2022-09-09T11:05:43;19.70;99.90
10270;DHT22;5180;50.832;5.390;2022-09-09T11:08:14;19.80;99.90
10270;DHT22;5180;50.832;5.390;2022-09-09T11:11:00;19.90;99.90
10270;DHT22;5180;50.832;5.390;2022-09-09T11:16:28;20.30;99.90
10270;DHT22;5180;50.832;5.390;2022-09-09T11:21:50;20.80;99.90
10270;DHT22;5180;50.832;5.390;2022-09-09T11:24:39;20.70;99.90
10270;DHT22;5180;50.832;5.390;2022-09-09T11:27:23;20.70;99.90
10270;DHT22;5180;50.832;5.390;2022-09-09T11:33:01;20.50;99.90
10270;DHT22;5180;50.832;5.390;2022-09-09T11:35:56;20.40;99.90
10270;DHT22;5180;50.832;5.390;2022-09-09T11:38:44;20.20;99.90
10270;DHT22;5180;50.832;5.390;2022-09-09T11:41:11;20.30;99.90
10270;DHT22;5180;50.832;5.390;2022-09-09T11:43:50;20.40;99.90
10270;DHT22;5180;50.832;5.390;2022-09-09T11:46:21;20.40;99.90
10270;DHT22;5180;50.832;5.390;2022-09-09T11:49:01;20.30;99.90
10270;DHT22;5180;50.832;5.390;2022-09-09T11:51:29;20.50;99.90
10270;DHT22;5180;50.832;5.390;2022-09-09T11:54:00;20.70;99.90
10270;DHT22;5180;50.832;5.390;2022-09-09T11:56:43;20.80;99.90
10270;DHT22;5180;50.832;5.390;2022-09-09T12:02:22;20.70;99.90
10270;DHT22;5180;50.832;5.390;2022-09-09T12:05:02;20.50;99.90
10270;DHT22;5180;50.832;5.390;2022-09-09T12:07:37;20.20;99.90
10270;DHT22;5180;50.832;5.390;2022-09-09T12:10:29;19.90;99.90
10270;DHT22;5180;50.832;5.390;2022-09-09T12:12:55;19.90;99.90
10270;DHT22;5180;50.832;5.390;2022-09-09T12:15:32;20.10;99.90
10270;DHT22;5180;50.832;5.390;2022-09-09T12:17:59;20.30;99.90
10270;DHT22;5180;50.832;5.390;2022-09-09T12:20:31;20.20;99.90
10270;DHT22;5180;50.832;5.390;2022-09-09T12:23:15;19.90;99.90
10270;DHT22;5180;50.832;5.390;2022-09-09T12:26:03;19.10;99.90
10270;DHT22;5180;50.832;5.390;2022-09-09T12:34:06;16.90;99.90
10270;DHT22;5180;50.832;5.390;2022-09-09T12:36:35;16.50;99.90
10270;DHT22;5180;50.832;5.390;2022-09-09T12:39:15;16.30;99.90
10270;DHT22;5180;50.832;5.390;2022-09-09T12:41:51;16.30;99.90
10270;DHT22;5180;50.832;5.390;2022-09-09T12:44:23;16.60;99.90
10270;DHT22;5180;50.832;5.390;2022-09-09T12:46:51;17.00;99.90
10270;DHT22;5180;50.832;5.390;2022-09-09T12:51:56;17.80;99.90
10270;DHT22;5180;50.832;5.390;2022-09-09T12:54:23;18.10;99.90
10270;DHT22;5180;50.832;5.390;2022-09-09T12:56:49;18.30;99.90
10270;DHT22;5180;50.832;5.390;2022-09-09T12:59:24;18.50;99.90
10270;DHT22;5180;50.832;5.390;2022-09-09T13:01:57;18.90;99.90
10270;DHT22;5180;50.832;5.390;2022-09-09T13:04:23;19.20;99.90
10270;DHT22;5180;50.832;5.390;2022-09-09T13:06:49;19.50;99.90
10270;DHT22;5180;50.832;5.390;2022-09-09T13:09:15;19.80;99.90
10270;DHT22;5180;50.832;5.390;2022-09-09T13:11:47;20.00;99.90
10270;DHT22;5180;50.832;5.390;2022-09-09T13:14:20;20.00;99.90
10270;DHT22;5180;50.832;5.390;2022-09-09T13:16:56;20.10;99.90
10270;DHT22;5180;50.832;5.390;2022-09-09T13:19:21;20.20;99.90
10270;DHT22;5180;50.832;5.390;2022-09-09T13:21:47;20.40;99.90
10270;DHT22;5180;50.832;5.390;2022-09-09T13:24:39;20.50;99.90
10270;DHT22;5180;50.832;5.390;2022-09-09T13:29:53;20.90;99.90
10270;DHT22;5180;50.832;5.390;2022-09-09T13:32:20;21.20;99.90
10270;DHT22;5180;50.832;5.390;2022-09-09T13:35:00;21.50;99.90
10270;DHT22;5180;50.832;5.390;2022-09-09T13:37:36;21.60;99.90
10270;DHT22;5180;50.832;5.390;2022-09-09T13:40:06;21.70;99.90
10270;DHT22;5180;50.832;5.390;2022-09-09T13:42:34;21.50;99.90
10270;DHT22;5180;50.832;5.390;2022-09-09T13:45:02;21.30;99.90
10270;DHT22;5180;50.832;5.390;2022-09-09T13:47:32;21.10;99.90
10270;DHT22;5180;50.832;5.390;2022-09-09T13:50:30;21.00;99.90
10270;DHT22;5180;50.832;5.390;2022-09-09T13:52:59;21.10;99.90
10270;DHT22;5180;50.832;5.390;2022-09-09T13:55:27;21.30;99.90
10270;DHT22;5180;50.832;5.390;2022-09-09T13:58:01;21.40;99.90
10270;DHT22;5180;50.832;5.390;2022-09-09T14:00:30;21.50;99.90
10270;DHT22;5180;50.832;5.390;2022-09-09T14:02:56;21.60;99.90
10270;DHT22;5180;50.832;5.390;2022-09-09T14:05:22;22.00;99.90
10270;DHT22;5180;50.832;5.390;2022-09-09T14:07:49;22.20;99.90
10270;DHT22;5180;50.832;5.390;2022-09-09T14:10:14;22.30;99.90
10270;DHT22;5180;50.832;5.390;2022-09-09T14:12:40;22.40;99.90
10270;DHT22;5180;50.832;5.390;2022-09-09T14:15:09;22.70;99.90
10270;DHT22;5180;50.832;5.390;2022-09-09T14:17:35;22.90;99.90
10270;DHT22;5180;50.832;5.390;2022-09-09T14:20:04;22.80;99.90
10270;DHT22;5180;50.832;5.390;2022-09-09T14:22:35;23.00;99.90
10270;DHT22;5180;50.832;5.390;2022-09-09T14:25:01;23.10;99.90
10270;DHT22;5180;50.832;5.390;2022-09-09T14:27:27;22.90;99.90
10270;DHT22;5180;50.832;5.390;2022-09-09T14:29:53;22.50;99.90
10270;DHT22;5180;50.832;5.390;2022-09-09T14:32:20;22.30;99.90
10270;DHT22;5180;50.832;5.390;2022-09-09T14:34:46;21.90;99.90
10270;DHT22;5180;50.832;5.390;2022-09-09T14:37:16;21.70;99.90
10270;DHT22;5180;50.832;5.390;2022-09-09T14:39:42;21.60;99.90
10270;DHT22;5180;50.832;5.390;2022-09-09T14:42:12;22.00;99.90
10270;DHT22;5180;50.832;5.390;2022-09-09T14:44:38;22.30;99.90
10270;DHT22;5180;50.832;5.390;2022-09-09T14:47:05;22.30;99.90
10270;DHT22;5180;50.832;5.390;2022-09-09T14:49:31;22.20;99.90
10270;DHT22;5180;50.832;5.390;2022-09-09T14:51:57;21.90;99.90
10270;DHT22;5180;50.832;5.390;2022-09-09T14:54:22;21.70;99.90
10270;DHT22;5180;50.832;5.390;2022-09-09T14:56:48;21.60;99.90
10270;DHT22;5180;50.832;5.390;2022-09-09T14:59:14;21.70;99.90
10270;DHT22;5180;50.832;5.390;2022-09-09T15:01:39;21.80;99.90
10270;DHT22;5180;50.832;5.390;2022-09-09T15:04:05;21.90;99.90
10270;DHT22;5180;50.832;5.390;2022-09-09T15:06:33;22.10;99.90
10270;DHT22;5180;50.832;5.390;2022-09-09T15:09:00;21.80;99.90
10270;DHT22;5180;50.832;5.390;2022-09-09T15:11:27;21.50;99.90
10270;DHT22;5180;50.832;5.390;2022-09-09T15:13:53;21.20;99.90
10270;DHT22;5180;50.832;5.390;2022-09-09T15:16:21;21.10;99.90
10270;DHT22;5180;50.832;5.390;2022-09-09T15:18:49;21.20;99.90
10270;DHT22;5180;50.832;5.390;2022-09-09T15:21:18;21.30;99.90
10270;DHT22;5180;50.832;5.390;2022-09-09T15:23:45;21.20;99.90
10270;DHT22;5180;50.832;5.390;2022-09-09T15:26:11;21.10;99.90
10270;DHT22;5180;50.832;5.390;2022-09-09T15:28:40;20.80;99.90
10270;DHT22;5180;50.832;5.390;2022-09-09T15:36:22;20.60;99.90
10270;DHT22;5180;50.832;5.390;2022-09-09T15:38:48;20.60;99.90
10270;DHT22;5180;50.832;5.390;2022-09-09T15:41:14;20.60;99.90
10270;DHT22;5180;50.832;5.390;2022-09-09T15:43:44;20.70;99.90
10270;DHT22;5180;50.832;5.390;2022-09-09T15:46:32;20.80;99.90
10270;DHT22;5180;50.832;5.390;2022-09-09T15:49:04;20.80;99.90
10270;DHT22;5180;50.832;5.390;2022-09-09T15:51:30;20.90;99.90
10270;DHT22;5180;50.832;5.390;2022-09-09T15:53:57;21.00;99.90
10270;DHT22;5180;50.832;5.390;2022-09-09T15:56:24;21.10;99.90
10270;DHT22;5180;50.832;5.390;2022-09-09T15:58:50;21.10;99.90
10270;DHT22;5180;50.832;5.390;2022-09-09T16:01:18;21.10;99.90
10270;DHT22;5180;50.832;5.390;2022-09-09T16:03:45;21.00;99.90
10270;DHT22;5180;50.832;5.390;2022-09-09T16:06:13;21.00;99.90
10270;DHT22;5180;50.832;5.390;2022-09-09T16:08:41;20.80;99.90
10270;DHT22;5180;50.832;5.390;2022-09-09T16:11:15;20.70;99.90
10270;DHT22;5180;50.832;5.390;2022-09-09T16:13:43;20.30;99.90
10270;DHT22;5180;50.832;5.390;2022-09-09T16:16:13;19.90;99.90
10270;DHT22;5180;50.832;5.390;2022-09-09T16:18:43;19.50;99.90
10270;DHT22;5180;50.832;5.390;2022-09-09T16:21:21;19.10;99.90
10270;DHT22;5180;50.832;5.390;2022-09-09T16:23:49;18.80;99.90
10270;DHT22;5180;50.832;5.390;2022-09-09T16:26:16;18.50;99.90
10270;DHT22;5180;50.832;5.390;2022-09-09T16:28:42;18.30;99.90
10270;DHT22;5180;50.832;5.390;2022-09-09T16:31:11;18.20;99.90
10270;DHT22;5180;50.832;5.390;2022-09-09T16:33:39;18.10;99.90
10270;DHT22;5180;50.832;5.390;2022-09-09T16:36:08;18.10;99.90
10270;DHT22;5180;50.832;5.390;2022-09-09T16:38:34;18.10;99.90
10270;DHT22;5180;50.832;5.390;2022-09-09T16:41:01;18.10;99.90
10270;DHT22;5180;50.832;5.390;2022-09-09T16:43:27;18.10;99.90
10270;DHT22;5180;50.832;5.390;2022-09-09T16:45:53;18.10;99.90
10270;DHT22;5180;50.832;5.390;2022-09-09T16:48:18;18.00;99.90
10270;DHT22;5180;50.832;5.390;2022-09-09T16:50:45;18.00;99.90
10270;DHT22;5180;50.832;5.390;2022-09-09T16:53:11;18.00;99.90
10270;DHT22;5180;50.832;5.390;2022-09-09T16:55:41;18.00;99.90
10270;DHT22;5180;50.832;5.390;2022-09-09T16:58:10;18.00;99.90
10270;DHT22;5180;50.832;5.390;2022-09-09T17:00:35;18.00;99.90
10270;DHT22;5180;50.832;5.390;2022-09-09T17:03:01;18.00;99.90
10270;DHT22;5180;50.832;5.390;2022-09-09T17:05:28;18.10;99.90
10270;DHT22;5180;50.832;5.390;2022-09-09T17:07:54;18.10;99.90
10270;DHT22;5180;50.832;5.390;2022-09-09T17:10:23;18.10;99.90
10270;DHT22;5180;50.832;5.390;2022-09-09T17:12:49;18.10;99.90
10270;DHT22;5180;50.832;5.390;2022-09-09T17:15:15;18.20;99.90
10270;DHT22;5180;50.832;5.390;2022-09-09T17:17:41;18.10;99.90
10270;DHT22;5180;50.832;5.390;2022-09-09T17:20:09;18.20;99.90
10270;DHT22;5180;50.832;5.390;2022-09-09T17:22:35;18.10;99.90
10270;DHT22;5180;50.832;5.390;2022-09-09T17:25:00;18.10;99.90
10270;DHT22;5180;50.832;5.390;2022-09-09T17:27:26;18.10;99.90
10270;DHT22;5180;50.832;5.390;2022-09-09T17:29:52;18.10;99.90
10270;DHT22;5180;50.832;5.390;2022-09-09T17:32:17;18.10;99.90
10270;DHT22;5180;50.832;5.390;2022-09-09T17:34:43;18.10;99.90
10270;DHT22;5180;50.832;5.390;2022-09-09T17:37:10;18.10;99.90
10270;DHT22;5180;50.832;5.390;2022-09-09T17:39:35;18.10;99.90
10270;DHT22;5180;50.832;5.390;2022-09-09T17:42:04;18.10;99.90
10270;DHT22;5180;50.832;5.390;2022-09-09T17:44:29;18.10;99.90
10270;DHT22;5180;50.832;5.390;2022-09-09T17:46:57;18.00;99.90
10270;DHT22;5180;50.832;5.390;2022-09-09T17:49:26;18.00;99.90
10270;DHT22;5180;50.832;5.390;2022-09-09T17:51:51;18.00;99.90
10270;DHT22;5180;50.832;5.390;2022-09-09T17:54:19;18.00;99.90
10270;DHT22;5180;50.832;5.390;2022-09-09T17:56:46;17.90;99.90
10270;DHT22;5180;50.832;5.390;2022-09-09T17:59:13;17.90;99.90
10270;DHT22;5180;50.832;5.390;2022-09-09T18:01:41;17.80;99.90
10270;DHT22;5180;50.832;5.390;2022-09-09T18:04:09;17.80;99.90
10270;DHT22;5180;50.832;5.390;2022-09-09T18:06:40;17.80;99.90
10270;DHT22;5180;50.832;5.390;2022-09-09T18:09:09;17.80;99.90